Airfield :
LOGIN :

Register | Disclaimer

   EN    FR    IT 

 










Legend :    VFR   Marginal VFR   IFR   Intensive IFR   Very Intensive IFR
Visi :
Ceiling :
>= 8 km
>= 3000ft
5 to 8 km
1000 to 3000 ft
1500m to 5 km
500 to 1000 ft
800 to 1500m
200 to 500 ft
< 800m
< 200 ft
Symbols :   Thunderstorms  Fog  Heavy snow  Heavy precipitations  Wind > 20 kt
SIGMETs :     Misc.  Thunderstorms  Icing  Turbulence  Mountain Waves  Volcanic Ashes







- Airport Elevation : 1260 ft
- IATA code : LDE
- Download approach charts


LFBT - Tarbes / Ossun

CURRENT METAR :
  • 280000Z AUTO 30003KT 260V320 9999 BKN007 BKN018 BKN025 19/17 Q1019 BECMG BKN010 BKN020

EXPIRED METARs :
  • 272330Z AUTO 31006KT 9999 BKN007 OVC011 19/18 Q1019 BECMG BKN010 BKN020
  • 272300Z AUTO 30005KT 260V320 9999 BKN010 OVC014 20/17 Q1018 NOSIG
  • 272230Z AUTO 31005KT 9999 SCT018 OVC033 20/17 Q1018 BECMG BKN008 BKN020
  • 272200Z AUTO 30004KT 260V350 9999 OVC033 21/17 Q1018 BECMG BKN008 BKN020
  • 272130Z AUTO 27004KT 9999 OVC035 21/17 Q1018 BECMG BKN008 BKN020

TAF AMD TAF LFBT
Valid from the 28 at 00:00 until the 29 at 00:00 UTC


280007Z 2800/2824 27005KT 9999 BKN010
TEMPO 2800/2806 3000 -DZRA OVC005
BECMG 2806/2808 BKN012
BECMG 2809/2812 BKN020
TEMPO 2812/2818 SCT020
No reported NOTAMs for that airfield.



MET'MAP, your aeronautical weather chart ! - Copyright ORBIFLY December 2007 - Disclaimer

ORBIFLY MET'MAP TEAM :

Programming & Development : Alexandra Zaïnal
Concept & Development : Baudouin d'Aumeries
Co-Development & Prog : Marc-Olivier Méhu
Technical & hardware support : Manuel Goepfert

Contact : metmap@orbifly.com




SOURCES & CREDITS :

   NOAA